Time,TemperatureF,DewpointF,PressureIn,WindDirection,WindDirectionDegrees,WindSpeedMPH,WindSpeedGustMPH,Humidity,HourlyPrecipIn,Conditions,Clouds,dailyrainin,SolarRadiationWatts/m^2,SoftwareType,DateUTC
2013-03-12 00:08:00,48.4,38.3,29.82,East,91,3.0,9.0,68,0.00,,,0.00,0,Wunderground v.1.15,2013-03-12 06:08:00,
2013-03-12 00:18:00,48.3,38.2,29.82,East,91,4.0,4.0,68,0.00,,,0.00,0,Wunderground v.1.15,2013-03-12 06:18:00,
2013-03-12 00:28:00,48.2,38.1,29.82,ENE,58,3.0,9.0,68,0.00,,,0.00,0,Wunderground v.1.15,2013-03-12 06:28:00,
2013-03-12 00:38:00,47.8,38.1,29.82,NNE,28,4.0,6.0,69,0.00,,,0.00,0,Wunderground v.1.15,2013-03-12 06:38:00,
2013-03-12 00:48:00,47.4,38.1,29.83,ENE,59,3.0,3.0,70,0.00,,,0.00,0,Wunderground v.1.15,2013-03-12 06:48:00,
2013-03-12 00:58:00,47.1,37.8,29.83,ENE,59,4.0,6.0,70,0.00,,,0.00,0,Wunderground v.1.15,2013-03-12 06:58:00,
2013-03-12 01:08:00,46.7,37.8,29.82,NE,50,3.0,3.0,71,0.00,,,0.00,0,Wunderground v.1.15,2013-03-12 07:08:00,
2013-03-12 01:18:00,46.5,37.6,29.82,ENE,57,1.0,1.0,71,0.00,,,0.00,0,Wunderground v.1.15,2013-03-12 07:18:00,
2013-03-12 01:28:00,46.3,37.8,29.82,NNE,23,2.0,4.0,72,0.00,,,0.00,0,Wunderground v.1.15,2013-03-12 07:28:00,
2013-03-12 01:38:00,46.0,37.5,29.81,NE,54,4.0,4.0,72,0.00,,,0.00,0,Wunderground v.1.15,2013-03-12 07:38:00,
2013-03-12 01:48:00,45.6,37.4,29.80,NNE,32,5.0,11.0,73,0.00,,,0.00,0,Wunderground v.1.15,2013-03-12 07:48:00,
2013-03-12 01:58:00,45.2,37.4,29.81,NE,47,5.0,6.0,74,0.00,,,0.00,0,Wunderground v.1.15,2013-03-12 07:58:00,
2013-03-12 02:08:00,45.1,37.3,29.80,ENE,72,5.0,5.0,74,0.00,,,0.00,0,Wunderground v.1.15,2013-03-12 08:08:00,
2013-03-12 02:18:00,45.0,37.6,29.79,ENE,66,5.0,5.0,75,0.00,,,0.00,0,Wunderground v.1.15,2013-03-12 08:18:00,
2013-03-12 02:28:00,45.1,37.6,29.80,ENE,65,3.0,4.0,75,0.00,,,0.00,0,Wunderground v.1.15,2013-03-12 08:28:00,
2013-03-12 02:38:00,45.0,37.6,29.80,ENE,57,4.0,5.0,75,0.00,,,0.00,0,Wunderground v.1.15,2013-03-12 08:38:00,
2013-03-12 02:48:00,44.6,37.5,29.79,ENE,60,6.0,6.0,76,0.00,,,0.00,0,Wunderground v.1.15,2013-03-12 08:48:00,
2013-03-12 02:58:00,44.2,37.4,29.80,NE,48,8.0,10.0,77,0.00,,,0.00,0,Wunderground v.1.15,2013-03-12 08:58:00,
2013-03-12 03:08:00,43.8,37.4,29.79,NE,42,6.0,6.0,78,0.00,,,0.00,0,Wunderground v.1.15,2013-03-12 09:08:00,
2013-03-12 03:18:00,43.5,37.1,29.80,NE,55,7.0,7.0,78,0.00,,,0.00,0,Wunderground v.1.15,2013-03-12 09:18:00,
2013-03-12 03:28:00,43.3,37.2,29.81,ENE,74,7.0,7.0,79,0.00,,,0.00,0,Wunderground v.1.15,2013-03-12 09:28:00,
2013-03-12 03:38:00,43.2,37.4,29.81,ENE,62,5.0,5.0,80,0.00,,,0.00,0,Wunderground v.1.15,2013-03-12 09:38:00,
2013-03-12 03:48:00,43.1,37.3,29.81,NE,50,5.0,9.0,80,0.00,,,0.00,0,Wunderground v.1.15,2013-03-12 09:48:00,
2013-03-12 03:58:00,42.9,36.8,29.81,ENE,59,4.0,4.0,79,0.00,,,0.00,0,Wunderground v.1.15,2013-03-12 09:58:00,
2013-03-12 04:08:00,42.5,36.1,29.81,NE,40,4.0,6.0,78,0.00,,,0.00,0,Wunderground v.1.15,2013-03-12 10:08:00,
2013-03-12 04:18:00,42.2,35.5,29.81,NNE,22,4.0,4.0,77,0.00,,,0.00,0,Wunderground v.1.15,2013-03-12 10:18:00,
2013-03-12 04:28:00,41.9,34.9,29.81,NE,36,2.0,2.0,76,0.00,,,0.00,0,Wunderground v.1.15,2013-03-12 10:28:00,
2013-03-12 04:38:00,41.7,34.7,29.81,NE,53,3.0,4.0,76,0.00,,,0.00,0,Wunderground v.1.15,2013-03-12 10:38:00,
2013-03-12 04:48:00,41.6,34.6,29.81,NE,49,3.0,3.0,76,0.00,,,0.00,0,Wunderground v.1.15,2013-03-12 10:48:00,
2013-03-12 04:58:00,41.5,34.2,29.81,NE,46,2.0,2.0,75,0.00,,,0.00,0,Wunderground v.1.15,2013-03-12 10:58:00,
2013-03-12 05:08:00,41.4,34.4,29.84,ENE,57,2.0,2.0,76,0.00,,,0.00,0,Wunderground v.1.15,2013-03-12 11:08:00,
2013-03-12 05:18:00,41.4,34.4,29.84,NE,53,0.0,0.0,76,0.00,,,0.00,0,Wunderground v.1.15,2013-03-12 11:18:00,
2013-03-12 05:28:00,41.3,34.0,29.84,NNE,28,0.0,0.0,75,0.00,,,0.00,0,Wunderground v.1.15,2013-03-12 11:28:00,
2013-03-12 05:38:00,41.1,33.8,29.84,ENE,65,0.0,0.0,75,0.00,,,0.00,0,Wunderground v.1.15,2013-03-12 11:38:00,
2013-03-12 05:48:00,40.9,33.6,29.85,NE,37,0.0,0.0,75,0.00,,,0.00,0,Wunderground v.1.15,2013-03-12 11:48:00,
2013-03-12 05:58:00,40.5,33.2,29.85,ENE,58,4.0,4.0,75,0.00,,,0.00,0,Wunderground v.1.15,2013-03-12 11:58:00,
2013-03-12 06:08:00,40.2,32.6,29.87,NE,34,3.0,6.0,74,0.00,,,0.00,0,Wunderground v.1.15,2013-03-12 12:08:00,
2013-03-12 06:18:00,40.1,32.8,29.87,ENE,74,4.0,4.0,75,0.00,,,0.00,0,Wunderground v.1.15,2013-03-12 12:18:00,
2013-03-12 06:28:00,40.1,32.8,29.88,NE,52,5.0,7.0,75,0.00,,,0.00,0,Wunderground v.1.15,2013-03-12 12:28:00,
2013-03-12 06:38:00,40.1,33.1,29.88,NE,55,4.0,7.0,76,0.00,,,0.00,0,Wunderground v.1.15,2013-03-12 12:38:00,
2013-03-12 06:48:00,40.0,33.4,29.89,ENE,59,5.0,5.0,77,0.00,,,0.00,0,Wunderground v.1.15,2013-03-12 12:48:00,
2013-03-12 06:58:00,40.2,34.2,29.89,ENE,59,4.0,4.0,79,0.00,,,0.00,5,Wunderground v.1.15,2013-03-12 12:58:00,
2013-03-12 07:08:00,40.5,34.5,29.91,NE,56,3.0,3.0,79,0.00,,,0.00,21,Wunderground v.1.15,2013-03-12 13:08:00,
2013-03-12 07:18:00,40.7,35.0,29.91,NE,47,3.0,5.0,80,0.00,,,0.00,37,Wunderground v.1.15,2013-03-12 13:18:00,
2013-03-12 07:28:00,40.9,35.2,29.92,NE,34,5.0,6.0,80,0.00,,,0.00,46,Wunderground v.1.15,2013-03-12 13:28:00,
2013-03-12 07:38:00,41.2,35.5,29.92,NE,41,5.0,7.0,80,0.00,,,0.00,83,Wunderground v.1.15,2013-03-12 13:38:00,
2013-03-12 07:48:00,41.8,36.4,29.92,NE,42,6.0,6.0,81,0.00,,,0.00,90,Wunderground v.1.15,2013-03-12 13:48:00,
2013-03-12 07:58:00,42.6,37.2,29.92,ENE,61,5.0,5.0,81,0.00,,,0.00,183,Wunderground v.1.15,2013-03-12 13:58:00,
2013-03-12 08:08:00,43.5,37.7,30.02,East,85,5.0,6.0,80,0.00,,,0.00,262,Wunderground v.1.15,2013-03-12 14:08:00,
2013-03-12 08:18:00,44.5,38.1,30.03,ENE,57,5.0,7.0,78,0.00,,,0.00,221,Wunderground v.1.15,2013-03-12 14:18:00,
2013-03-12 08:28:00,45.3,38.5,30.03,NE,54,6.0,6.0,77,0.00,,,0.00,281,Wunderground v.1.15,2013-03-12 14:28:00,
2013-03-12 08:38:00,46.5,39.0,30.02,NE,46,6.0,6.0,75,0.00,,,0.00,336,Wunderground v.1.15,2013-03-12 14:38:00,
2013-03-12 08:48:00,48.1,40.2,30.01,NE,45,4.0,4.0,74,0.00,,,0.00,278,Wunderground v.1.15,2013-03-12 14:48:00,
2013-03-12 08:58:00,49.8,40.8,30.00,NE,46,4.0,11.0,71,0.00,,,0.00,397,Wunderground v.1.15,2013-03-12 14:58:00,
2013-03-12 09:08:00,50.9,41.1,30.03,NNE,33,7.0,7.0,69,0.00,,,0.00,443,Wunderground v.1.15,2013-03-12 15:08:00,
2013-03-12 09:18:00,51.4,40.0,30.04,East,83,7.0,7.0,65,0.00,,,0.00,503,Wunderground v.1.15,2013-03-12 15:18:00,
2013-03-12 09:28:00,52.7,40.5,30.03,ENE,72,6.0,6.0,63,0.00,,,0.00,411,Wunderground v.1.15,2013-03-12 15:28:00,
2013-03-12 09:38:00,53.5,39.9,30.03,ENE,70,3.0,3.0,60,0.00,,,0.00,554,Wunderground v.1.15,2013-03-12 15:38:00,
2013-03-12 09:48:00,54.6,39.2,30.02,East,86,4.0,4.0,56,0.00,,,0.00,388,Wunderground v.1.15,2013-03-12 15:48:00,
2013-03-12 09:58:00,55.3,39.4,30.02,ENE,73,3.0,3.0,55,0.00,,,0.00,445,Wunderground v.1.15,2013-03-12 15:58:00,
2013-03-12 10:08:00,56.9,39.9,30.01,East,81,2.0,3.0,53,0.00,,,0.00,322,Wunderground v.1.15,2013-03-12 16:08:00,
2013-03-12 10:18:00,57.9,40.4,30.00,ENE,61,1.0,4.0,52,0.00,,,0.00,494,Wunderground v.1.15,2013-03-12 16:18:00,
2013-03-12 10:28:00,59.0,40.4,30.00,ENE,78,1.0,1.0,50,0.00,,,0.00,432,Wunderground v.1.15,2013-03-12 16:28:00,
2013-03-12 10:38:00,60.3,41.6,29.98,East,97,1.0,1.0,50,0.00,,,0.00,763,Wunderground v.1.15,2013-03-12 16:38:00,
2013-03-12 10:48:00,62.7,42.2,29.97,ENE,69,0.0,0.0,47,0.00,,,0.00,775,Wunderground v.1.15,2013-03-12 16:48:00,
2013-03-12 10:58:00,63.8,42.0,29.95,SW,226,0.0,0.0,45,0.00,,,0.00,694,Wunderground v.1.15,2013-03-12 16:58:00,
2013-03-12 11:08:00,64.9,42.5,29.95,WSW,242,0.0,0.0,44,0.00,,,0.00,772,Wunderground v.1.15,2013-03-12 17:08:00,
2013-03-12 11:18:00,65.8,42.7,29.95,West,265,0.0,0.0,43,0.00,,,0.00,830,Wunderground v.1.15,2013-03-12 17:18:00,
2013-03-12 11:28:00,66.7,42.9,29.93,SSW,205,0.0,0.0,42,0.00,,,0.00,838,Wunderground v.1.15,2013-03-12 17:28:00,
2013-03-12 11:38:00,67.5,42.3,29.92,South,169,0.0,0.0,40,0.00,,,0.00,717,Wunderground v.1.15,2013-03-12 17:38:00,
2013-03-12 11:48:00,68.5,43.2,29.90,South,175,0.0,0.0,40,0.00,,,0.00,793,Wunderground v.1.15,2013-03-12 17:48:00,
2013-03-12 11:58:00,69.4,42.7,29.90,WSW,250,0.0,0.0,38,0.00,,,0.00,598,Wunderground v.1.15,2013-03-12 17:58:00,
2013-03-12 12:08:00,68.8,42.1,29.91,West,263,1.0,1.0,38,0.00,,,0.00,682,Wunderground v.1.15,2013-03-12 18:08:00,
2013-03-12 12:18:00,69.3,41.2,29.90,SW,234,0.0,0.0,36,0.00,,,0.00,782,Wunderground v.1.15,2013-03-12 18:18:00,
2013-03-12 12:28:00,69.4,40.5,29.89,WNW,289,1.0,1.0,35,0.00,,,0.00,780,Wunderground v.1.15,2013-03-12 18:28:00,
2013-03-12 12:38:00,70.2,41.3,29.89,West,276,2.0,2.0,35,0.00,,,0.00,816,Wunderground v.1.15,2013-03-12 18:38:00,
2013-03-12 12:48:00,70.6,40.9,29.87,SW,234,1.0,2.0,34,0.00,,,0.00,689,Wunderground v.1.15,2013-03-12 18:48:00,
2013-03-12 12:58:00,71.2,41.4,29.87,SW,227,2.0,2.0,34,0.00,,,0.00,796,Wunderground v.1.15,2013-03-12 18:58:00,
2013-03-12 13:08:00,72.6,41.0,29.85,WSW,237,1.0,1.0,32,0.00,,,0.00,823,Wunderground v.1.15,2013-03-12 19:08:00,
2013-03-12 13:18:00,73.4,40.9,29.84,South,173,1.0,1.0,31,0.00,,,0.00,847,Wunderground v.1.15,2013-03-12 19:18:00,
2013-03-12 13:28:00,72.9,40.5,29.84,West,271,1.0,5.0,31,0.00,,,0.00,756,Wunderground v.1.15,2013-03-12 19:28:00,
2013-03-12 13:38:00,73.4,39.2,29.84,West,260,6.0,10.0,29,0.00,,,0.00,916,Wunderground v.1.15,2013-03-12 19:38:00,
2013-03-12 13:48:00,73.9,33.7,29.84,WNW,295,4.0,4.0,23,0.00,,,0.00,814,Wunderground v.1.15,2013-03-12 19:48:00,
2013-03-12 13:58:00,74.7,29.7,29.83,West,263,11.0,11.0,19,0.00,,,0.00,626,Wunderground v.1.15,2013-03-12 19:58:00,
2013-03-12 14:08:00,75.1,30.0,29.84,WSW,256,11.0,11.0,19,0.00,,,0.00,805,Wunderground v.1.15,2013-03-12 20:08:00,
2013-03-12 14:18:00,75.4,28.9,29.83,West,259,11.0,11.0,18,0.00,,,0.00,979,Wunderground v.1.15,2013-03-12 20:18:00,
2013-03-12 14:28:00,75.4,28.9,29.83,West,277,7.0,7.0,18,0.00,,,0.00,448,Wunderground v.1.15,2013-03-12 20:28:00,
2013-03-12 14:38:00,75.1,30.0,29.83,NW,322,7.0,12.0,19,0.00,,,0.00,534,Wunderground v.1.15,2013-03-12 20:38:00,
2013-03-12 14:48:00,75.4,31.5,29.83,North,355,4.0,11.0,20,0.00,,,0.00,791,Wunderground v.1.15,2013-03-12 20:48:00,
2013-03-12 14:58:00,75.7,30.5,29.81,WNW,288,7.0,11.0,19,0.00,,,0.00,552,Wunderground v.1.15,2013-03-12 20:58:00,
2013-03-12 15:08:00,75.3,31.4,29.81,NNE,14,4.0,4.0,20,0.00,,,0.00,464,Wunderground v.1.15,2013-03-12 21:08:00,
2013-03-12 15:18:00,75.6,31.7,29.81,NNW,329,4.0,4.0,20,0.00,,,0.00,348,Wunderground v.1.15,2013-03-12 21:18:00,
2013-03-12 15:28:00,75.2,30.1,29.81,WNW,297,3.0,5.0,19,0.00,,,0.00,515,Wunderground v.1.15,2013-03-12 21:28:00,
2013-03-12 15:38:00,75.7,30.5,29.80,NNW,343,7.0,7.0,19,0.00,,,0.00,596,Wunderground v.1.15,2013-03-12 21:38:00,
2013-03-12 15:48:00,75.2,31.3,29.80,NW,324,6.0,7.0,20,0.00,,,0.00,445,Wunderground v.1.15,2013-03-12 21:48:00,
2013-03-12 15:58:00,75.1,32.5,29.80,NNW,341,7.0,7.0,21,0.00,,,0.00,462,Wunderground v.1.15,2013-03-12 21:58:00,
2013-03-12 16:08:00,74.8,31.0,29.81,North,355,6.0,6.0,20,0.00,,,0.00,276,Wunderground v.1.15,2013-03-12 22:08:00,
2013-03-12 16:18:00,74.6,32.1,29.80,NNW,334,5.0,5.0,21,0.00,,,0.00,315,Wunderground v.1.15,2013-03-12 22:18:00,
2013-03-12 16:28:00,74.4,31.9,29.81,NNW,331,5.0,5.0,21,0.00,,,0.00,279,Wunderground v.1.15,2013-03-12 22:28:00,
2013-03-12 16:38:00,74.3,31.8,29.81,NNW,339,4.0,6.0,21,0.00,,,0.00,265,Wunderground v.1.15,2013-03-12 22:38:00,
2013-03-12 16:48:00,74.5,33.1,29.80,NW,319,5.0,9.0,22,0.00,,,0.00,214,Wunderground v.1.15,2013-03-12 22:48:00,
2013-03-12 16:58:00,74.3,31.8,29.81,NNW,331,6.0,6.0,21,0.00,,,0.00,327,Wunderground v.1.15,2013-03-12 22:58:00,
2013-03-12 17:08:00,74.5,34.2,29.81,NW,326,5.0,5.0,23,0.00,,,0.00,225,Wunderground v.1.15,2013-03-12 23:08:00,
2013-03-12 17:18:00,74.9,32.3,29.82,NNE,14,2.0,2.0,21,0.00,,,0.00,200,Wunderground v.1.15,2013-03-12 23:18:00,
2013-03-12 17:28:00,75.0,33.6,29.82,North,355,5.0,5.0,22,0.00,,,0.00,223,Wunderground v.1.15,2013-03-12 23:28:00,
2013-03-12 17:38:00,74.9,32.3,29.82,NNW,344,3.0,5.0,21,0.00,,,0.00,167,Wunderground v.1.15,2013-03-12 23:38:00,
2013-03-12 17:48:00,74.3,33.0,29.82,NNW,344,5.0,5.0,22,0.00,,,0.00,230,Wunderground v.1.15,2013-03-12 23:48:00,
2013-03-12 18:08:00,74.2,32.9,29.82,North,5,2.0,4.0,22,0.00,,,0.00,93,Wunderground v.1.15,2013-03-13 00:08:00,
2013-03-12 18:18:00,73.9,32.6,29.82,North,355,3.0,3.0,22,0.00,,,0.00,69,Wunderground v.1.15,2013-03-13 00:18:00,
2013-03-12 18:28:00,73.2,32.1,29.84,NW,311,3.0,4.0,22,0.00,,,0.00,58,Wunderground v.1.15,2013-03-13 00:28:00,
2013-03-12 18:38:00,72.8,31.7,29.84,NNW,344,2.0,3.0,22,0.00,,,0.00,12,Wunderground v.1.15,2013-03-13 00:38:00,
2013-03-12 18:48:00,72.2,32.3,29.85,NNE,24,2.0,2.0,23,0.00,,,0.00,0,Wunderground v.1.15,2013-03-13 00:48:00,
2013-03-12 18:58:00,71.6,31.8,29.86,North,360,2.0,2.0,23,0.00,,,0.00,0,Wunderground v.1.15,2013-03-13 00:58:00,
2013-03-12 19:08:00,71.2,31.5,29.85,NNE,29,1.0,1.0,23,0.00,,,0.00,0,Wunderground v.1.15,2013-03-13 01:08:00,
2013-03-12 19:18:00,70.3,35.6,29.86,East,85,3.0,3.0,28,0.00,,,0.00,0,Wunderground v.1.15,2013-03-13 01:18:00,
2013-03-12 19:28:00,68.8,36.9,29.87,East,80,2.0,3.0,31,0.00,,,0.00,0,Wunderground v.1.15,2013-03-13 01:28:00,
2013-03-12 19:48:00,64.9,37.3,29.90,ENE,69,6.0,6.0,36,0.00,,,0.00,0,Wunderground v.1.15,2013-03-13 01:48:00,
2013-03-12 19:58:00,63.9,37.1,29.92,East,86,6.0,6.0,37,0.00,,,0.00,0,Wunderground v.1.15,2013-03-13 01:58:00,
2013-03-12 20:08:00,63.0,37.0,29.90,East,82,5.0,10.0,38,0.00,,,0.00,0,Wunderground v.1.15,2013-03-13 02:08:00,
2013-03-12 20:18:00,62.3,37.0,29.90,East,90,5.0,6.0,39,0.00,,,0.00,0,Wunderground v.1.15,2013-03-13 02:18:00,
2013-03-12 20:28:00,61.5,36.9,29.91,ENE,70,6.0,9.0,40,0.00,,,0.00,0,Wunderground v.1.15,2013-03-13 02:28:00,
2013-03-12 20:38:00,60.8,36.9,29.93,East,86,5.0,5.0,41,0.00,,,0.00,0,Wunderground v.1.15,2013-03-13 02:38:00,
2013-03-12 20:48:00,60.2,36.4,29.94,East,86,4.0,5.0,41,0.00,,,0.00,0,Wunderground v.1.15,2013-03-13 02:48:00,
2013-03-12 20:58:00,59.7,36.6,29.96,East,87,3.0,3.0,42,0.00,,,0.00,0,Wunderground v.1.15,2013-03-13 02:58:00,
2013-03-12 21:08:00,59.0,36.5,29.93,East,94,4.0,9.0,43,0.00,,,0.00,0,Wunderground v.1.15,2013-03-13 03:08:00,
2013-03-12 21:18:00,59.0,37.1,29.93,ENE,70,4.0,4.0,44,0.00,,,0.00,0,Wunderground v.1.15,2013-03-13 03:18:00,
2013-03-12 21:28:00,58.5,37.2,29.94,ENE,71,5.0,5.0,45,0.00,,,0.00,0,Wunderground v.1.15,2013-03-13 03:28:00,
2013-03-12 21:38:00,58.0,36.8,29.94,East,83,4.0,6.0,45,0.00,,,0.00,0,Wunderground v.1.15,2013-03-13 03:38:00,
2013-03-12 21:48:00,57.7,37.6,29.95,ENE,74,4.0,4.0,47,0.00,,,0.00,0,Wunderground v.1.15,2013-03-13 03:48:00,
2013-03-12 21:58:00,57.5,37.9,29.96,East,81,2.0,2.0,48,0.00,,,0.00,0,Wunderground v.1.15,2013-03-13 03:58:00,
2013-03-12 22:08:00,57.4,38.4,29.93,ENE,76,3.0,3.0,49,0.00,,,0.00,0,Wunderground v.1.15,2013-03-13 04:08:00,
2013-03-12 22:18:00,57.3,38.3,29.93,East,87,5.0,5.0,49,0.00,,,0.00,0,Wunderground v.1.15,2013-03-13 04:18:00,
2013-03-12 22:28:00,57.2,38.2,29.94,ENE,61,2.0,3.0,49,0.00,,,0.00,0,Wunderground v.1.15,2013-03-13 04:28:00,
2013-03-12 22:38:00,56.8,38.3,29.95,NE,49,4.0,4.0,50,0.00,,,0.00,0,Wunderground v.1.15,2013-03-13 04:38:00,
2013-03-12 22:48:00,56.5,38.6,29.95,NE,49,4.0,4.0,51,0.00,,,0.00,0,Wunderground v.1.15,2013-03-13 04:48:00,
2013-03-12 22:58:00,56.0,38.6,29.95,NE,50,5.0,5.0,52,0.00,,,0.00,0,Wunderground v.1.15,2013-03-13 04:58:00,
2013-03-12 23:08:00,55.6,38.7,29.93,NE,46,3.0,3.0,53,0.00,,,0.00,0,Wunderground v.1.15,2013-03-13 05:08:00,
2013-03-12 23:18:00,55.3,38.9,29.93,NNE,23,0.0,0.0,54,0.00,,,0.00,0,Wunderground v.1.15,2013-03-13 05:18:00,
2013-03-12 23:28:00,55.3,38.9,29.93,ENE,69,0.0,0.0,54,0.00,,,0.00,0,Wunderground v.1.15,2013-03-13 05:28:00,
2013-03-12 23:38:00,55.2,38.8,29.93,ENE,78,0.0,0.0,54,0.00,,,0.00,0,Wunderground v.1.15,2013-03-13 05:38:00,
2013-03-12 23:48:00,55.1,38.7,29.93,NE,53,0.0,0.0,54,0.00,,,0.00,0,Wunderground v.1.15,2013-03-13 05:48:00,
2013-03-12 23:58:00,54.9,39.0,29.93,ENE,69,0.0,0.0,55,0.00,,,0.00,0,Wunderground v.1.15,2013-03-13 05:58:00,